Time;durP1;ratioP1;P1;durP2;ratioP2;P2;SDS_P1;SDS_P2;PMS_P1;PMS_P2;Temp;Humidity;BMP_temperature;BMP_pressure;BME280_temperature;BME280_humidity;BME280_pressure;Samples;Min_cycle;Max_cycle;Signal;HPM_P1;HPM_P2
2023/10/29 00:02:09;;;;;;;2.05;1.45;;;;;;;12.15;100.00;99049.56;4999385;28;20027;-51
2023/10/29 00:04:37;;;;;;;1.92;1.30;;;;;;;12.17;100.00;99064.38;5000657;28;20056;-51
2023/10/29 00:07:03;;;;;;;2.25;1.42;;;;;;;12.18;100.00;99054.53;4998928;28;20499;-51
2023/10/29 00:09:29;;;;;;;3.08;1.45;;;;;;;12.19;100.00;99056.19;4998689;28;20030;-51
2023/10/29 00:11:54;;;;;;;4.00;1.40;;;;;;;12.20;100.00;99049.88;4999839;28;20030;-51
2023/10/29 00:14:19;;;;;;;3.97;1.42;;;;;;;12.21;100.00;99048.88;5000532;28;20022;-53
2023/10/29 00:16:45;;;;;;;1.63;1.15;;;;;;;12.21;100.00;99032.91;4999241;28;20030;-52
2023/10/29 00:19:10;;;;;;;2.80;1.40;;;;;;;12.20;100.00;99024.06;4998741;28;20033;-54
2023/10/29 00:21:35;;;;;;;1.40;1.20;;;;;;;12.20;100.00;99002.78;5002727;28;20030;-51
2023/10/29 00:24:01;;;;;;;2.45;1.20;;;;;;;12.20;100.00;98996.63;5001147;28;20036;-52
2023/10/29 00:26:26;;;;;;;2.90;1.38;;;;;;;12.21;100.00;98972.50;5001594;28;20038;-51
2023/10/29 00:28:51;;;;;;;6.57;1.40;;;;;;;12.23;100.00;98976.84;5003402;28;20041;-51
2023/10/29 00:31:16;;;;;;;2.80;1.25;;;;;;;12.23;100.00;98966.19;4996860;28;20400;-52
2023/10/29 00:33:42;;;;;;;2.65;1.20;;;;;;;12.24;100.00;98979.34;4997931;28;20023;-52
2023/10/29 00:36:08;;;;;;;3.40;1.20;;;;;;;12.22;100.00;98970.66;4995519;28;20030;-52
2023/10/29 00:38:33;;;;;;;1.95;1.38;;;;;;;12.22;100.00;98976.00;5002343;28;20041;-52
2023/10/29 00:40:58;;;;;;;2.38;1.45;;;;;;;12.23;100.00;99012.25;4998174;28;20101;-53
2023/10/29 00:43:24;;;;;;;4.00;1.10;;;;;;;12.23;100.00;99008.78;4997631;28;20160;-52
2023/10/29 00:45:53;;;;;;;6.80;1.48;;;;;;;12.26;100.00;98987.13;4998540;28;20069;-52
2023/10/29 00:48:20;;;;;;;3.78;1.23;;;;;;;12.25;100.00;98986.28;5005610;28;20161;-52
2023/10/29 00:50:45;;;;;;;4.15;1.40;;;;;;;12.26;100.00;98987.97;4998145;28;20363;-52
2023/10/29 00:53:11;;;;;;;2.65;0.90;;;;;;;12.30;100.00;98999.09;4997066;28;20022;-52
2023/10/29 00:55:36;;;;;;;2.95;1.30;;;;;;;12.32;100.00;98981.97;4998728;28;20113;-54
2023/10/29 00:58:02;;;;;;;4.15;1.50;;;;;;;12.34;100.00;98979.94;4996329;28;20050;-55
2023/10/29 01:00:28;;;;;;;1.95;1.30;;;;;;;12.35;100.00;98980.75;5001160;28;20069;-53
2023/10/29 01:02:53;;;;;;;2.50;1.10;;;;;;;12.39;100.00;98966.94;4999981;28;20054;-52
2023/10/29 01:05:19;;;;;;;3.40;1.20;;;;;;;12.40;100.00;98963.25;4996255;28;20053;-53
2023/10/29 01:07:44;;;;;;;4.35;1.42;;;;;;;12.41;100.00;98974.75;4997507;28;20018;-51
2023/10/29 01:10:10;;;;;;;4.30;1.33;;;;;;;12.49;100.00;98957.88;4999576;28;20087;-50
2023/10/29 01:12:36;;;;;;;3.08;1.15;;;;;;;12.50;100.00;98955.03;4998944;28;20434;-51
2023/10/29 01:15:01;;;;;;;4.03;1.40;;;;;;;12.52;100.00;98949.53;4998205;28;20026;-52
2023/10/29 01:17:26;;;;;;;3.63;1.20;;;;;;;12.52;100.00;98952.19;4999457;28;20034;-51
2023/10/29 01:19:51;;;;;;;4.47;1.30;;;;;;;12.52;100.00;98934.41;5012417;28;20057;-51
2023/10/29 01:22:17;;;;;;;2.72;1.40;;;;;;;12.52;100.00;98933.56;4996274;28;20038;-51
2023/10/29 01:24:43;;;;;;;2.35;1.23;;;;;;;12.50;100.00;98951.56;5000124;28;20271;-51
2023/10/29 01:27:10;;;;;;;4.35;1.52;;;;;;;12.48;100.00;98957.06;4995234;28;20018;-52
2023/10/29 01:29:35;;;;;;;3.38;1.30;;;;;;;12.48;100.00;98954.38;4998352;28;20442;-50
2023/10/29 01:32:01;;;;;;;1.85;1.35;;;;;;;12.49;100.00;98947.22;4998699;28;20023;-50
2023/10/29 01:34:26;;;;;;;4.47;1.15;;;;;;;12.50;100.00;98943.56;4999814;28;20026;-51
2023/10/29 01:36:52;;;;;;;1.52;0.95;;;;;;;12.50;100.00;98936.41;4997834;28;20027;-50
2023/10/29 01:39:17;;;;;;;5.47;1.50;;;;;;;12.49;100.00;98940.09;4996097;28;20022;-50
2023/10/29 01:41:42;;;;;;;2.95;1.42;;;;;;;12.48;100.00;98924.28;4996618;28;20027;-50
2023/10/29 01:44:08;;;;;;;1.92;1.02;;;;;;;12.44;100.00;98913.16;4996484;28;20026;-50
2023/10/29 01:46:33;;;;;;;1.35;1.25;;;;;;;12.45;100.00;98909.47;5001236;28;20053;-51
2023/10/29 01:48:58;;;;;;;7.70;1.20;;;;;;;12.42;100.00;98909.00;4997253;28;20029;-51
2023/10/29 01:51:24;;;;;;;3.47;1.38;;;;;;;12.40;100.00;98914.50;4995900;28;20034;-50
2023/10/29 01:53:49;;;;;;;2.75;1.30;;;;;;;12.39;100.00;98919.00;4997748;28;20058;-50
2023/10/29 01:56:14;;;;;;;3.83;1.10;;;;;;;12.39;100.00;98920.84;5001781;28;20022;-51
2023/10/29 01:58:40;;;;;;;2.83;1.50;;;;;;;12.36;100.00;98924.69;4995633;28;20026;-51
2023/10/29 02:01:10;;;;;;;1.20;0.88;;;;;;;12.36;100.00;98929.19;4999058;28;20112;-50
2023/10/29 02:03:36;;;;;;;3.47;1.17;;;;;;;12.35;100.00;98922.19;4998826;28;20113;-51
2023/10/29 02:06:01;;;;;;;4.47;1.13;;;;;;;12.35;100.00;98931.00;4998963;28;20586;-51
2023/10/29 02:08:26;;;;;;;3.67;1.10;;;;;;;12.34;100.00;98934.69;5007902;28;20034;-50
2023/10/29 02:10:52;;;;;;;1.23;0.90;;;;;;;12.33;100.00;98935.69;5000748;28;20031;-50
2023/10/29 02:13:17;;;;;;;4.72;1.27;;;;;;;12.32;100.00;98928.72;4999979;28;20078;-51
2023/10/29 02:15:42;;;;;;;6.63;1.33;;;;;;;12.34;100.00;98940.00;4994996;28;20389;-51
2023/10/29 02:18:08;;;;;;;2.38;1.30;;;;;;;12.33;100.00;98930.34;4993655;28;20060;-51
2023/10/29 02:20:33;;;;;;;2.58;1.20;;;;;;;12.35;100.00;98920.34;4998302;28;20026;-51
2023/10/29 02:22:59;;;;;;;3.10;1.50;;;;;;;12.36;100.00;98929.19;4996644;28;20396;-51
2023/10/29 02:25:24;;;;;;;4.22;1.20;;;;;;;12.36;100.00;98937.16;4996977;28;20059;-49
2023/10/29 02:27:49;;;;;;;4.43;1.50;;;;;;;12.37;100.00;98918.38;4997691;28;20029;-50
2023/10/29 02:30:15;;;;;;;3.10;1.40;;;;;;;12.35;100.00;98927.50;4997981;28;20037;-50
2023/10/29 02:32:40;;;;;;;4.32;1.35;;;;;;;12.34;100.00;98939.16;4995590;28;20019;-50
2023/10/29 02:35:07;;;;;;;5.15;1.17;;;;;;;12.34;100.00;98934.69;5000477;28;20023;-50
2023/10/29 02:37:33;;;;;;;2.22;1.38;;;;;;;12.34;100.00;98932.03;4997816;28;20083;-51
2023/10/29 02:39:58;;;;;;;3.10;1.23;;;;;;;12.36;100.00;98929.19;4998531;28;20022;-51
2023/10/29 02:42:23;;;;;;;2.90;1.27;;;;;;;12.37;100.00;98921.03;4999007;28;20415;-52
2023/10/29 02:44:49;;;;;;;3.20;1.00;;;;;;;12.39;100.00;98923.50;5000355;28;20023;-52
2023/10/29 02:47:14;;;;;;;1.73;1.10;;;;;;;12.38;100.00;98914.69;4997588;28;20046;-52
2023/10/29 02:49:39;;;;;;;2.35;1.30;;;;;;;12.43;100.00;98913.34;4998702;28;20045;-52
2023/10/29 02:52:05;;;;;;;3.40;1.20;;;;;;;12.44;100.00;98917.63;4993543;28;20022;-52
2023/10/29 02:54:32;;;;;;;3.17;1.08;;;;;;;12.44;100.00;98922.97;4999750;28;20030;-52
2023/10/29 02:56:57;;;;;;;1.80;1.20;;;;;;;12.47;100.00;98926.09;4997661;28;20114;-52
2023/10/29 02:59:22;;;;;;;3.00;1.20;;;;;;;12.48;100.00;98921.63;4998046;28;20113;-52
2023/10/29 03:01:47;;;;;;;1.83;0.95;;;;;;;12.51;100.00;98921.28;5003290;28;20488;-52
2023/10/29 03:04:13;;;;;;;2.03;1.20;;;;;;;12.51;100.00;98914.09;5000504;28;20036;-50
2023/10/29 03:06:41;;;;;;;4.18;1.02;;;;;;;12.53;100.00;98911.25;5000022;28;20084;-51
2023/10/29 03:09:07;;;;;;;2.42;1.10;;;;;;;12.54;100.00;98916.41;5006598;28;20057;-50
2023/10/29 03:11:32;;;;;;;1.42;1.00;;;;;;;12.57;100.00;98917.88;5000115;28;20476;-51
2023/10/29 03:13:59;;;;;;;2.38;0.93;;;;;;;12.61;100.00;98913.00;5007827;28;20426;-50
2023/10/29 03:16:24;;;;;;;4.60;1.17;;;;;;;12.63;100.00;98925.16;5002354;28;20075;-51
2023/10/29 03:18:50;;;;;;;2.15;1.00;;;;;;;12.64;100.00;98923.31;5003317;28;20042;-51
2023/10/29 03:21:18;;;;;;;1.00;0.90;;;;;;;12.67;100.00;98923.78;5000909;28;20075;-50
2023/10/29 03:23:43;;;;;;;2.27;1.03;;;;;;;12.68;100.00;98924.63;5004942;28;20037;-51
2023/10/29 03:26:09;;;;;;;1.63;0.88;;;;;;;12.68;100.00;98938.78;5002203;28;20330;-50
2023/10/29 03:28:35;;;;;;;4.18;0.80;;;;;;;12.68;100.00;98927.28;5004831;28;20025;-51
2023/10/29 03:31:01;;;;;;;2.10;1.23;;;;;;;12.69;100.00;98932.44;4999184;28;20038;-51
2023/10/29 03:33:26;;;;;;;1.17;1.05;;;;;;;12.69;100.00;98935.13;5006812;28;20029;-50
2023/10/29 03:35:51;;;;;;;1.13;0.85;;;;;;;12.69;100.00;98932.44;5005198;28;20101;-50
2023/10/29 03:38:16;;;;;;;1.67;1.10;;;;;;;12.68;100.00;98944.09;5000182;28;20030;-50
2023/10/29 03:40:42;;;;;;;1.25;0.80;;;;;;;12.68;100.00;98938.78;5002998;28;20515;-50
2023/10/29 03:43:08;;;;;;;1.63;1.02;;;;;;;12.67;100.00;98929.09;5004657;28;20425;-51
2023/10/29 03:45:33;;;;;;;1.75;1.17;;;;;;;12.67;100.00;98930.97;4999795;28;20046;-51
2023/10/29 03:47:58;;;;;;;1.25;0.80;;;;;;;12.63;100.00;98929.66;5007331;28;20030;-51
2023/10/29 03:50:24;;;;;;;2.17;1.00;;;;;;;12.62;100.00;98933.31;5001408;28;20022;-51
2023/10/29 03:52:49;;;;;;;1.55;1.10;;;;;;;12.59;100.00;98922.03;5004289;28;20058;-51
2023/10/29 03:55:15;;;;;;;1.17;0.80;;;;;;;12.57;100.00;98921.38;5007797;28;20133;-50
2023/10/29 03:57:41;;;;;;;1.30;0.88;;;;;;;12.53;100.00;98922.72;4997044;28;20436;-50
2023/10/29 04:00:06;;;;;;;2.13;0.95;;;;;;;12.52;100.00;98921.09;5001268;28;20038;-50
2023/10/29 04:02:32;;;;;;;2.90;0.95;;;;;;;12.52;100.00;98918.44;4999269;28;20022;-51
2023/10/29 04:04:57;;;;;;;4.32;1.00;;;;;;;12.53;100.00;98927.25;5000752;28;20542;-50
2023/10/29 04:07:22;;;;;;;2.33;1.02;;;;;;;12.56;100.00;98929.56;5002152;28;20114;-51
2023/10/29 04:09:48;;;;;;;3.10;1.10;;;;;;;12.57;100.00;98933.84;5002404;28;20052;-51
2023/10/29 04:12:13;;;;;;;2.40;1.10;;;;;;;12.57;100.00;98923.19;5002041;28;20026;-50
2023/10/29 04:14:42;;;;;;;1.70;0.90;;;;;;;12.56;100.00;98935.69;4997429;28;20484;-50
2023/10/29 04:17:07;;;;;;;1.55;1.00;;;;;;;12.56;100.00;98941.03;5002713;28;20109;-51
2023/10/29 04:19:33;;;;;;;2.85;1.20;;;;;;;12.57;100.00;98944.50;4996531;28;20454;-50
2023/10/29 04:21:59;;;;;;;2.40;1.05;;;;;;;12.55;100.00;98946.53;5001946;28;20032;-51
2023/10/29 04:24:24;;;;;;;4.13;1.17;;;;;;;12.55;100.00;98942.00;4996885;28;20109;-51
2023/10/29 04:26:49;;;;;;;2.42;1.48;;;;;;;12.56;100.00;98958.84;5000398;28;20503;-52
2023/10/29 04:29:16;;;;;;;5.45;1.10;;;;;;;12.58;100.00;98964.81;5006997;28;20030;-51
2023/10/29 04:31:41;;;;;;;4.10;1.20;;;;;;;12.60;100.00;98944.16;5023492;28;20030;-51
2023/10/29 04:34:06;;;;;;;5.10;1.13;;;;;;;12.58;100.00;98935.53;5016108;28;20037;-52
2023/10/29 04:36:32;;;;;;;3.40;0.98;;;;;;;12.58;100.00;98946.16;5003203;28;20051;-52
2023/10/29 04:38:57;;;;;;;4.13;1.17;;;;;;;12.57;100.00;98952.50;5002167;28;20030;-51
2023/10/29 04:41:23;;;;;;;2.03;1.15;;;;;;;12.57;100.00;98957.81;5020926;28;20104;-52
2023/10/29 04:43:48;;;;;;;4.38;1.10;;;;;;;12.56;100.00;98948.19;5000466;28;20034;-52
2023/10/29 04:46:14;;;;;;;2.22;1.05;;;;;;;12.57;100.00;98950.69;5007710;28;20061;-51
2023/10/29 04:48:40;;;;;;;7.00;1.50;;;;;;;12.56;100.00;98938.34;5006538;28;20042;-53
2023/10/29 04:51:09;;;;;;;3.15;1.30;;;;;;;12.59;100.00;98945.19;5000428;28;20033;-51
2023/10/29 04:53:35;;;;;;;4.93;1.20;;;;;;;12.59;100.00;98939.84;5010474;28;20030;-50
2023/10/29 04:56:00;;;;;;;5.68;1.30;;;;;;;12.58;100.00;98949.66;5000340;28;20756;-49
2023/10/29 04:58:26;;;;;;;4.38;1.40;;;;;;;12.59;100.00;98956.66;5004715;28;20042;-51
2023/10/29 05:00:51;;;;;;;4.68;1.35;;;;;;;12.59;100.00;98950.50;5003930;28;20034;-51
2023/10/29 05:03:16;;;;;;;2.35;1.23;;;;;;;12.60;100.00;98954.81;5009627;28;20030;-51
2023/10/29 05:05:42;;;;;;;3.20;1.27;;;;;;;12.59;100.00;98961.16;5014648;28;20054;-51
2023/10/29 05:08:07;;;;;;;5.05;1.30;;;;;;;12.58;100.00;98957.66;5045034;28;20020;-50
2023/10/29 05:10:33;;;;;;;6.72;1.30;;;;;;;12.57;100.00;98969.31;5022666;28;20018;-50
2023/10/29 05:12:58;;;;;;;3.38;1.45;;;;;;;12.56;100.00;98983.63;5003367;28;20022;-51
2023/10/29 05:15:23;;;;;;;4.07;1.42;;;;;;;12.55;100.00;98999.78;5007741;28;20037;-51
2023/10/29 05:17:49;;;;;;;5.30;1.73;;;;;;;12.54;100.00;99011.44;5016537;28;20060;-53
2023/10/29 05:20:15;;;;;;;2.92;1.40;;;;;;;12.50;100.00;98999.47;5026776;28;20117;-53
2023/10/29 05:22:41;;;;;;;4.75;1.42;;;;;;;12.45;100.00;98996.53;5054237;28;20028;-51
2023/10/29 05:25:07;;;;;;;4.35;1.40;;;;;;;12.40;100.00;99019.16;5008794;28;20101;-52
2023/10/29 05:27:33;;;;;;;5.60;1.50;;;;;;;12.34;100.00;99006.56;5005554;28;20514;-52
2023/10/29 05:29:59;;;;;;;4.22;1.50;;;;;;;12.28;100.00;98999.25;5010328;28;20017;-54
2023/10/29 05:32:25;;;;;;;3.90;0.95;;;;;;;12.22;100.00;98997.28;5022904;28;20042;-52
2023/10/29 05:34:50;;;;;;;3.50;1.15;;;;;;;12.13;100.00;98991.19;5014065;28;20038;-51
2023/10/29 05:37:16;;;;;;;2.17;1.10;;;;;;;12.07;100.00;98999.03;5019967;28;20033;-53
2023/10/29 05:39:41;;;;;;;5.35;1.35;;;;;;;11.99;100.00;99002.53;5018293;28;20041;-51
2023/10/29 05:42:07;;;;;;;2.22;1.10;;;;;;;11.92;100.00;99012.22;5033152;28;20022;-54
2023/10/29 05:44:32;;;;;;;4.85;1.10;;;;;;;11.85;100.00;99031.47;5003100;28;20109;-51
2023/10/29 05:46:57;;;;;;;5.55;1.40;;;;;;;11.78;100.00;99035.81;5000520;28;20127;-53
2023/10/29 05:49:23;;;;;;;4.95;1.35;;;;;;;11.76;100.00;99031.69;5005815;28;20042;-51
2023/10/29 05:51:49;;;;;;;2.47;0.90;;;;;;;11.70;100.00;99037.69;5008416;28;20485;-51
2023/10/29 05:54:15;;;;;;;3.83;1.20;;;;;;;11.68;100.00;99045.81;5012513;28;20038;-51
2023/10/29 05:56:40;;;;;;;4.55;1.50;;;;;;;11.63;100.00;99059.63;5002199;28;20029;-52
2023/10/29 05:59:05;;;;;;;4.22;1.38;;;;;;;11.59;100.00;99068.94;5009405;28;20393;-51
2023/10/29 06:01:30;;;;;;;2.38;1.00;;;;;;;11.56;100.00;99077.25;4995109;28;20113;-53
2023/10/29 06:03:56;;;;;;;3.78;1.30;;;;;;;11.56;100.00;99074.59;4998824;28;20026;-53
2023/10/29 06:06:21;;;;;;;3.17;1.30;;;;;;;11.53;100.00;99080.25;4999668;28;20121;-51
2023/10/29 06:08:46;;;;;;;3.33;1.38;;;;;;;11.51;100.00;99078.75;5014254;28;20038;-52
2023/10/29 06:11:12;;;;;;;5.43;1.48;;;;;;;11.50;100.00;99085.88;5014031;28;20079;-52
2023/10/29 06:13:37;;;;;;;10.13;1.60;;;;;;;11.47;100.00;99087.06;4999251;28;20071;-51
2023/10/29 06:16:07;;;;;;;7.10;1.75;;;;;;;11.45;100.00;99097.00;4998029;28;20465;-51
2023/10/29 06:18:32;;;;;;;8.95;1.98;;;;;;;11.46;100.00;99105.84;4997441;28;20120;-51
2023/10/29 06:20:58;;;;;;;4.82;1.40;;;;;;;11.44;100.00;99107.81;5000154;28;20042;-50
2023/10/29 06:23:23;;;;;;;4.68;1.45;;;;;;;11.44;100.00;99115.78;4999928;28;20030;-48
2023/10/29 06:25:48;;;;;;;8.20;1.90;;;;;;;11.42;100.00;99107.16;4994489;28;20076;-48
2023/10/29 06:28:14;;;;;;;7.05;1.50;;;;;;;11.41;100.00;99116.16;5011766;28;20033;-48
2023/10/29 06:30:39;;;;;;;6.82;1.60;;;;;;;11.38;100.00;99116.47;5002250;28;20441;-48
2023/10/29 06:33:04;;;;;;;8.60;1.85;;;;;;;11.34;100.00;99121.28;4999933;28;20026;-48
2023/10/29 06:35:30;;;;;;;7.28;1.67;;;;;;;11.32;100.00;99109.97;4997637;28;20026;-48
2023/10/29 06:37:55;;;;;;;5.68;1.40;;;;;;;11.27;100.00;99114.94;5002561;28;20026;-48
2023/10/29 06:40:21;;;;;;;9.95;2.40;;;;;;;11.25;100.00;99127.59;4993745;28;20070;-47
2023/10/29 06:42:46;;;;;;;8.13;1.75;;;;;;;11.22;100.00;99131.38;4995463;28;20108;-48
2023/10/29 06:45:14;;;;;;;6.40;1.77;;;;;;;11.18;100.00;99131.91;4995752;28;20121;-48
2023/10/29 06:47:39;;;;;;;12.23;2.17;;;;;;;11.13;100.00;99135.03;4998934;28;20029;-48
2023/10/29 06:50:05;;;;;;;6.45;1.83;;;;;;;11.08;100.00;99137.34;4996555;28;20403;-47
2023/10/29 06:52:30;;;;;;;10.32;2.00;;;;;;;11.06;100.00;99150.81;4993768;28;20029;-47
2023/10/29 06:54:56;;;;;;;5.75;1.70;;;;;;;11.04;100.00;99151.94;4999316;28;20048;-48
2023/10/29 06:57:21;;;;;;;11.15;2.15;;;;;;;11.00;100.00;99147.97;4992553;28;20037;-46
2023/10/29 06:59:46;;;;;;;8.70;2.08;;;;;;;10.99;100.00;99152.47;4993711;28;20045;-46
2023/10/29 07:02:11;;;;;;;7.38;2.05;;;;;;;10.98;100.00;99173.88;5002441;28;20042;-46
2023/10/29 07:04:37;;;;;;;8.30;2.38;;;;;;;10.94;100.00;99165.34;4996814;28;20526;-46
2023/10/29 07:07:02;;;;;;;10.73;2.08;;;;;;;10.91;100.00;99173.69;4993933;28;20038;-46
2023/10/29 07:09:27;;;;;;;9.52;2.05;;;;;;;10.90;100.00;99174.66;4991556;28;20476;-46
2023/10/29 07:11:55;;;;;;;9.82;2.28;;;;;;;10.86;100.00;99187.44;4996325;28;20510;-46
2023/10/29 07:14:20;;;;;;;7.10;2.03;;;;;;;10.85;100.00;99190.25;4998614;28;20064;-46
2023/10/29 07:16:46;;;;;;;12.13;2.30;;;;;;;10.84;100.00;99188.56;5000869;28;20022;-46
2023/10/29 07:19:12;;;;;;;7.80;2.05;;;;;;;10.84;100.00;99196.53;4997669;28;20425;-46
2023/10/29 07:21:38;;;;;;;6.68;1.90;;;;;;;10.84;100.00;99197.38;4999042;28;20040;-46
2023/10/29 07:24:05;;;;;;;8.43;2.30;;;;;;;10.84;100.00;99189.44;4999756;28;20035;-46
2023/10/29 07:26:33;;;;;;;6.00;2.05;;;;;;;10.87;100.00;99198.88;4997071;28;20058;-46
2023/10/29 07:29:00;;;;;;;11.82;2.13;;;;;;;10.88;100.00;99204.03;4994051;28;20049;-46
2023/10/29 07:31:25;;;;;;;11.63;2.05;;;;;;;10.90;100.00;99212.66;4990399;28;20109;-46
2023/10/29 07:33:52;;;;;;;8.10;1.80;;;;;;;10.93;100.00;99230.13;4996017;28;20109;-47
2023/10/29 07:36:17;;;;;;;10.55;2.30;;;;;;;10.96;100.00;99236.94;4995653;28;20083;-46
2023/10/29 07:38:43;;;;;;;14.40;2.45;;;;;;;10.98;100.00;99221.69;4994237;28;20358;-46
2023/10/29 07:41:08;;;;;;;8.85;2.22;;;;;;;10.99;100.00;99225.97;4994192;28;20465;-47
2023/10/29 07:43:33;;;;;;;9.85;2.40;;;;;;;11.01;100.00;99226.69;4997425;28;20400;-48
2023/10/29 07:46:05;;;;;;;10.18;2.28;;;;;;;11.05;100.00;99228.84;4996140;28;20064;-47
2023/10/29 07:48:30;;;;;;;9.77;2.20;;;;;;;11.10;100.00;99241.63;5001283;28;20676;-47
2023/10/29 07:50:55;;;;;;;11.40;2.70;;;;;;;11.13;100.00;99243.97;4997676;28;20026;-46
2023/10/29 07:53:21;;;;;;;10.88;2.40;;;;;;;11.19;100.00;99242.50;5002259;28;20392;-47
2023/10/29 07:55:46;;;;;;;12.18;2.47;;;;;;;11.23;100.00;99241.19;5000690;28;20103;-46
2023/10/29 07:58:12;;;;;;;10.18;2.35;;;;;;;11.28;100.00;99249.50;5002974;28;20362;-48
2023/10/29 08:00:37;;;;;;;12.52;2.75;;;;;;;11.33;100.00;99230.44;4998045;28;20030;-46
2023/10/29 08:03:02;;;;;;;10.85;2.63;;;;;;;11.41;100.00;99235.78;5000542;28;20030;-46
2023/10/29 08:05:28;;;;;;;11.18;2.47;;;;;;;11.47;100.00;99241.28;4996411;28;20075;-47
2023/10/29 08:07:53;;;;;;;13.07;3.10;;;;;;;11.55;100.00;99243.09;4996268;28;20038;-47
2023/10/29 08:10:18;;;;;;;8.88;2.05;;;;;;;11.61;100.00;99253.09;4991614;28;20121;-46
2023/10/29 08:12:44;;;;;;;9.38;1.98;;;;;;;11.69;100.00;99260.25;4996847;28;20034;-46
2023/10/29 08:15:09;;;;;;;8.35;1.88;;;;;;;11.77;100.00;99270.88;4996618;28;20034;-46
2023/10/29 08:17:35;;;;;;;12.90;2.40;;;;;;;11.82;100.00;99263.28;5002298;28;20419;-46
2023/10/29 08:20:00;;;;;;;9.32;1.88;;;;;;;11.87;100.00;99273.41;4997523;28;20049;-45
2023/10/29 08:22:26;;;;;;;9.80;2.25;;;;;;;11.91;100.00;99272.13;4997634;28;20038;-46
2023/10/29 08:24:51;;;;;;;8.80;2.25;;;;;;;11.95;100.00;99286.75;5000894;28;20042;-46
2023/10/29 08:27:17;;;;;;;12.80;2.53;;;;;;;12.00;100.00;99287.06;5001814;28;20095;-46
2023/10/29 08:29:43;;;;;;;12.52;2.58;;;;;;;12.07;100.00;99295.22;4994907;28;20106;-46
2023/10/29 08:32:08;;;;;;;8.77;2.40;;;;;;;12.08;100.00;99282.78;4998104;28;20030;-45
2023/10/29 08:34:34;;;;;;;9.10;2.35;;;;;;;12.08;100.00;99288.09;4993010;28;20041;-46
2023/10/29 08:36:59;;;;;;;7.22;1.88;;;;;;;12.11;100.00;99287.78;4995514;28;20027;-46
2023/10/29 08:39:25;;;;;;;8.45;2.05;;;;;;;12.14;100.00;99292.72;4998513;28;20526;-46
2023/10/29 08:41:50;;;;;;;9.48;2.65;;;;;;;12.17;100.00;99282.63;5009234;28;20384;-46
2023/10/29 08:44:18;;;;;;;9.27;2.58;;;;;;;12.24;100.00;99292.56;4998042;28;20054;-45
2023/10/29 08:46:44;;;;;;;7.70;2.15;;;;;;;12.28;100.00;99315.22;4998559;28;20054;-46
2023/10/29 08:49:10;;;;;;;6.55;1.95;;;;;;;12.30;100.00;99311.38;4998968;28;20051;-46
2023/10/29 08:51:35;;;;;;;8.80;2.00;;;;;;;12.36;100.00;99324.03;4994750;28;20074;-45
2023/10/29 08:54:02;;;;;;;9.60;2.17;;;;;;;12.44;100.00;99339.19;4999641;28;20110;-46
2023/10/29 08:56:29;;;;;;;8.77;2.42;;;;;;;12.52;100.00;99335.66;5000169;28;20079;-45
2023/10/29 08:58:54;;;;;;;8.32;2.33;;;;;;;12.61;99.79;99353.31;5000365;28;20030;-45
2023/10/29 09:01:20;;;;;;;8.27;1.85;;;;;;;12.73;100.00;99337.81;4997108;28;20109;-46
2023/10/29 09:03:45;;;;;;;10.30;2.25;;;;;;;12.91;100.00;99357.09;4998963;28;20038;-47
2023/10/29 09:06:12;;;;;;;7.63;1.70;;;;;;;13.00;99.14;99355.25;4995670;28;20030;-46
2023/10/29 09:08:38;;;;;;;10.48;3.40;;;;;;;13.11;96.55;99367.41;5003638;28;20084;-45
2023/10/29 09:11:04;;;;;;;8.57;1.95;;;;;;;13.21;96.56;99376.03;5001129;28;20037;-45
2023/10/29 09:13:30;;;;;;;8.70;2.42;;;;;;;13.29;97.75;99365.34;4977168;28;20046;-45
2023/10/29 09:15:55;;;;;;;10.77;2.13;;;;;;;13.31;96.12;99378.53;5003714;28;20537;-46
2023/10/29 09:18:20;;;;;;;8.25;2.28;;;;;;;13.28;95.74;99361.00;4996996;28;20112;-46
2023/10/29 09:20:50;;;;;;;9.70;2.17;;;;;;;13.24;93.02;99377.53;4996341;28;20493;-46
2023/10/29 09:23:16;;;;;;;8.18;2.25;;;;;;;13.23;94.53;99394.53;4996425;28;20041;-46
2023/10/29 09:25:44;;;;;;;9.02;2.30;;;;;;;13.24;94.67;99385.50;4997589;28;20026;-45
2023/10/29 09:28:11;;;;;;;9.25;2.05;;;;;;;13.29;93.28;99383.19;4997935;28;20022;-45
2023/10/29 09:30:37;;;;;;;12.77;2.22;;;;;;;13.39;96.38;99391.88;4995984;28;20034;-47
2023/10/29 09:33:02;;;;;;;14.55;2.45;;;;;;;13.49;93.60;99383.66;4997648;28;20456;-45
2023/10/29 09:35:27;;;;;;;8.90;2.22;;;;;;;13.59;94.18;99376.28;4997451;28;20045;-46
2023/10/29 09:37:53;;;;;;;10.63;2.80;;;;;;;13.71;92.42;99375.91;4990923;28;20064;-45
2023/10/29 09:40:19;;;;;;;7.83;2.03;;;;;;;13.76;90.81;99384.22;4995139;28;20175;-45
2023/10/29 09:42:53;;;;;;;8.68;2.25;;;;;;;13.81;94.05;99388.00;4996197;28;20768;-45
2023/10/29 09:45:22;;;;;;;10.60;2.45;;;;;;;13.80;89.46;99386.34;4992403;28;20493;-45
2023/10/29 09:47:47;;;;;;;8.02;2.00;;;;;;;13.86;90.02;99376.81;4997666;28;20493;-46
2023/10/29 09:50:14;;;;;;;10.32;2.28;;;;;;;13.90;90.58;99387.97;4995149;28;20041;-46
2023/10/29 09:52:39;;;;;;;11.73;2.50;;;;;;;13.89;87.59;99381.81;5002882;28;20085;-45
2023/10/29 09:55:07;;;;;;;11.32;2.13;;;;;;;13.92;89.55;99388.63;4994036;28;20552;-45
2023/10/29 09:57:32;;;;;;;17.40;3.00;;;;;;;13.96;88.52;99382.75;5000773;28;20058;-47
2023/10/29 09:59:59;;;;;;;9.25;2.10;;;;;;;13.98;86.51;99375.41;4989378;28;20065;-46
2023/10/29 10:02:26;;;;;;;8.52;1.98;;;;;;;13.95;86.66;99362.41;4996092;28;20030;-46
2023/10/29 10:04:51;;;;;;;8.05;2.40;;;;;;;13.98;87.99;99355.91;4992159;28;20388;-46
2023/10/29 10:07:17;;;;;;;10.82;2.08;;;;;;;14.00;88.63;99357.38;4998882;28;20038;-46
2023/10/29 10:09:55;;;;;;;9.48;2.20;;;;;;;14.05;92.08;99357.69;4995186;28;20595;-47
2023/10/29 10:12:21;;;;;;;7.10;2.15;;;;;;;14.04;87.82;99361.38;4995879;28;20026;-47
2023/10/29 10:14:48;;;;;;;8.05;1.95;;;;;;;14.01;87.17;99368.91;4988191;28;20086;-47
2023/10/29 10:17:14;;;;;;;8.93;2.10;;;;;;;13.97;86.02;99362.22;4994815;28;20113;-46
2023/10/29 10:19:40;;;;;;;9.88;2.13;;;;;;;13.93;89.30;99359.09;4995660;28;20464;-48
2023/10/29 10:22:06;;;;;;;8.82;2.00;;;;;;;13.93;87.71;99353.75;4990706;28;20031;-46
2023/10/29 10:24:43;;;;;;;8.88;2.05;;;;;;;13.91;87.70;99358.44;5017410;28;20169;-46
2023/10/29 10:27:09;;;;;;;12.48;2.75;;;;;;;13.89;90.26;99347.13;4995939;28;20623;-47
2023/10/29 10:29:34;;;;;;;10.95;2.28;;;;;;;13.90;91.55;99350.63;4998472;28;20330;-46
2023/10/29 10:32:04;;;;;;;7.30;1.80;;;;;;;13.91;90.77;99349.63;4994810;28;20113;-46
2023/10/29 10:34:31;;;;;;;10.77;2.00;;;;;;;13.95;89.58;99353.56;4994355;28;20042;-46
2023/10/29 10:37:02;;;;;;;9.55;2.15;;;;;;;13.99;90.61;99358.41;4994956;28;20022;-46
2023/10/29 10:39:28;;;;;;;8.10;2.05;;;;;;;14.05;89.91;99365.72;4995343;28;20026;-46
2023/10/29 10:41:55;;;;;;;11.98;2.38;;;;;;;14.10;90.75;99378.50;4993152;28;20064;-46
2023/10/29 10:44:22;;;;;;;9.00;1.85;;;;;;;14.12;90.70;99391.69;4994450;28;20031;-46
2023/10/29 10:46:54;;;;;;;10.18;2.28;;;;;;;14.14;90.73;99390.50;4991930;28;20059;-46
2023/10/29 10:49:23;;;;;;;11.65;2.35;;;;;;;14.17;89.28;99402.66;4997552;28;20028;-46
2023/10/29 10:51:54;;;;;;;;;;;;;;;14.25;93.41;99403.47;5004216;28;20042;-46
2023/10/29 10:54:20;;;;;;;8.52;2.15;;;;;;;14.14;89.86;99401.19;4991961;28;20330;-48
2023/10/29 10:56:46;;;;;;;12.30;2.15;;;;;;;14.10;87.92;99394.53;4993454;28;20027;-46
2023/10/29 10:59:12;;;;;;;9.02;1.88;;;;;;;14.05;88.91;99391.56;4994916;28;20649;-46
2023/10/29 11:01:39;;;;;;;9.45;2.20;;;;;;;14.01;87.96;99384.91;4997402;28;20496;-46
2023/10/29 11:04:08;;;;;;;8.93;2.20;;;;;;;13.97;88.68;99383.59;4995209;28;20034;-46
2023/10/29 11:06:35;;;;;;;10.77;2.60;;;;;;;13.95;90.60;99381.09;4993043;28;20049;-48
2023/10/29 11:09:00;;;;;;;9.02;2.22;;;;;;;13.91;89.58;99381.63;4992078;28;20105;-50
2023/10/29 11:11:31;;;;;;;9.50;2.42;;;;;;;13.84;88.54;99386.84;4998650;28;20032;-47
2023/10/29 11:14:10;;;;;;;4.90;1.73;;;;;;;13.81;88.89;99382.69;4994932;28;20033;-46
2023/10/29 11:16:50;;;;;;;7.57;2.13;;;;;;;13.78;90.12;99372.34;4993609;28;20056;-47
2023/10/29 11:19:39;;;;;;;9.40;2.40;;;;;;;13.74;91.83;99362.19;4993027;28;20031;-47
2023/10/29 11:22:18;;;;;;;13.18;2.28;;;;;;;13.69;92.49;99357.41;5002978;28;20085;-46